Time;durP1;ratioP1;P1;durP2;ratioP2;P2;SDS_P1;SDS_P2;PMS_P1;PMS_P2;Temp;Humidity;BMP_temperature;BMP_pressure;BME280_temperature;BME280_humidity;BME280_pressure;Samples;Min_cycle;Max_cycle;Signal;HPM_P1;HPM_P2
2021/10/29 00:00:44;;;;;;;20.75;11.80;;;9.20;99.90;;;;;;5052200;28;20233;-72
2021/10/29 00:03:11;;;;;;;18.50;11.30;;;9.20;99.90;;;;;;5052178;28;20225;-72
2021/10/29 00:05:39;;;;;;;22.70;12.02;;;9.20;99.90;;;;;;5051889;28;20217;-73
2021/10/29 00:08:06;;;;;;;19.05;11.77;;;9.10;99.90;;;;;;5052178;28;20753;-72
2021/10/29 00:10:34;;;;;;;16.50;10.20;;;9.10;99.90;;;;;;5052510;28;20593;-72
2021/10/29 00:13:02;;;;;;;16.67;11.95;;;9.20;99.90;;;;;;5052324;28;20203;-74
2021/10/29 00:15:29;;;;;;;21.30;12.60;;;9.10;99.90;;;;;;5052200;28;20411;-73
2021/10/29 00:17:56;;;;;;;19.10;12.55;;;9.20;99.90;;;;;;5052046;28;20208;-72
2021/10/29 00:20:23;;;;;;;22.17;12.75;;;9.20;99.90;;;;;;5052196;28;20310;-74
2021/10/29 00:22:52;;;;;;;19.40;12.70;;;9.10;99.90;;;;;;5054767;28;20230;-74
2021/10/29 00:25:19;;;;;;;14.43;10.77;;;8.90;99.90;;;;;;5056297;28;20574;-73
2021/10/29 00:27:47;;;;;;;20.67;11.68;;;8.90;99.90;;;;;;5055998;28;20213;-74
2021/10/29 00:30:14;;;;;;;20.38;12.80;;;8.90;99.90;;;;;;5055863;28;20245;-74
2021/10/29 00:32:41;;;;;;;16.92;11.77;;;8.90;99.90;;;;;;5055723;28;20245;-75
2021/10/29 00:35:08;;;;;;;19.10;11.52;;;9.00;99.90;;;;;;5056013;28;20210;-75
2021/10/29 00:37:39;;;;;;;16.55;11.68;;;9.00;99.90;;;;;;5056628;28;20290;-74
2021/10/29 00:40:10;;;;;;;19.17;12.32;;;8.90;99.90;;;;;;5055831;28;20207;-74
2021/10/29 00:42:37;;;;;;;16.35;12.23;;;9.00;99.90;;;;;;5055650;28;20306;-74
2021/10/29 00:45:05;;;;;;;19.50;11.63;;;9.00;99.90;;;;;;5055600;28;20204;-74
2021/10/29 00:47:32;;;;;;;17.55;11.70;;;8.90;99.90;;;;;;5055925;28;20200;-74
2021/10/29 00:49:59;;;;;;;19.75;11.82;;;8.60;99.90;;;;;;5055615;28;20199;-72
2021/10/29 00:52:26;;;;;;;18.48;11.10;;;8.50;99.90;;;;;;5055514;28;20295;-72
2021/10/29 00:54:53;;;;;;;20.10;13.45;;;8.50;99.90;;;;;;5055423;28;20598;-73
2021/10/29 00:57:22;;;;;;;19.02;11.70;;;8.60;99.90;;;;;;5055518;28;20245;-72
2021/10/29 00:59:50;;;;;;;18.30;11.23;;;8.60;99.90;;;;;;5055177;28;20211;-72
2021/10/29 01:02:17;;;;;;;19.17;11.35;;;8.70;99.90;;;;;;5055259;28;20227;-73
2021/10/29 01:04:44;;;;;;;19.27;11.75;;;8.50;99.90;;;;;;5055396;28;20291;-72
2021/10/29 01:07:10;;;;;;;17.55;11.32;;;8.30;99.90;;;;;;5055298;28;20570;-73
2021/10/29 01:09:37;;;;;;;18.00;11.77;;;8.40;99.90;;;;;;5055140;28;20662;-72
2021/10/29 01:12:05;;;;;;;20.00;11.65;;;8.50;99.90;;;;;;5055438;28;20233;-73
2021/10/29 01:14:33;;;;;;;18.83;11.30;;;8.50;99.90;;;;;;5055279;28;20294;-73
2021/10/29 01:17:00;;;;;;;19.77;12.32;;;8.60;99.90;;;;;;5055317;28;20207;-74
2021/10/29 01:19:32;;;;;;;17.23;11.15;;;8.70;99.90;;;;;;5055103;28;20290;-73
2021/10/29 01:22:01;;;;;;;18.13;11.75;;;8.60;99.90;;;;;;5054860;28;20271;-73
2021/10/29 01:24:28;;;;;;;20.08;12.30;;;8.60;99.90;;;;;;5054846;28;20211;-73
2021/10/29 01:26:55;;;;;;;18.80;12.23;;;8.70;99.90;;;;;;5055438;28;20200;-74
2021/10/29 01:29:22;;;;;;;22.45;12.73;;;8.70;99.90;;;;;;5054917;28;20209;-74
2021/10/29 01:31:49;;;;;;;22.90;13.02;;;8.70;99.90;;;;;;5054710;28;20609;-73
2021/10/29 01:34:15;;;;;;;17.40;11.38;;;8.60;99.90;;;;;;5054348;28;20290;-73
2021/10/29 01:36:43;;;;;;;18.40;10.65;;;8.30;99.90;;;;;;5054871;28;20311;-73
2021/10/29 01:39:16;;;;;;;20.35;12.00;;;8.30;99.90;;;;;;5054460;28;20413;-73
2021/10/29 01:41:43;;;;;;;18.98;11.23;;;8.20;99.90;;;;;;5055392;28;20223;-73
2021/10/29 01:44:10;;;;;;;20.77;11.50;;;8.30;99.90;;;;;;5056241;28;20227;-74
2021/10/29 01:46:37;;;;;;;20.92;12.05;;;8.30;99.90;;;;;;5056611;28;20261;-75
2021/10/29 01:49:04;;;;;;;20.50;11.93;;;8.30;99.90;;;;;;5055653;28;20721;-75
2021/10/29 01:51:31;;;;;;;19.23;10.90;;;8.30;99.90;;;;;;5055378;28;20259;-74
2021/10/29 01:53:58;;;;;;;19.08;12.50;;;8.30;99.90;;;;;;5055906;28;20290;-75
2021/10/29 01:56:27;;;;;;;19.77;11.50;;;8.30;99.90;;;;;;5055356;28;20215;-75
2021/10/29 01:58:54;;;;;;;18.55;12.10;;;8.10;99.90;;;;;;5055541;28;20261;-75
2021/10/29 02:01:21;;;;;;;17.90;11.85;;;8.10;99.90;;;;;;5055301;28;20235;-75
2021/10/29 02:03:48;;;;;;;19.75;12.80;;;8.10;99.90;;;;;;5055290;28;20555;-75
2021/10/29 02:06:15;;;;;;;22.90;12.32;;;8.10;99.90;;;;;;5055290;28;20199;-75
2021/10/29 02:08:42;;;;;;;18.30;11.20;;;8.20;99.90;;;;;;5055364;28;20565;-75
2021/10/29 02:11:09;;;;;;;18.95;11.82;;;8.30;99.90;;;;;;5054911;28;20740;-74
2021/10/29 02:13:37;;;;;;;21.02;12.38;;;8.30;99.90;;;;;;5055278;28;20202;-75
2021/10/29 02:16:05;;;;;;;17.60;12.48;;;8.20;99.90;;;;;;5055127;28;20203;-75
2021/10/29 02:18:32;;;;;;;21.50;12.63;;;8.10;99.90;;;;;;5055185;28;20200;-75
2021/10/29 02:20:59;;;;;;;20.80;12.07;;;8.00;99.90;;;;;;5055011;28;20322;-74
2021/10/29 02:23:27;;;;;;;18.25;11.40;;;7.90;99.90;;;;;;5055016;28;20245;-75
2021/10/29 02:25:54;;;;;;;21.05;11.30;;;7.90;99.90;;;;;;5054854;28;20214;-74
2021/10/29 02:28:23;;;;;;;17.55;12.25;;;7.80;99.90;;;;;;5055006;28;20204;-75
2021/10/29 02:30:52;;;;;;;20.45;12.40;;;7.70;99.90;;;;;;5054887;28;20226;-75
2021/10/29 02:33:19;;;;;;;20.80;13.02;;;7.80;99.90;;;;;;5054703;28;20199;-74
2021/10/29 02:35:47;;;;;;;17.67;12.30;;;8.00;99.90;;;;;;5054851;28;20199;-75
2021/10/29 02:38:14;;;;;;;20.60;12.98;;;8.00;99.90;;;;;;5054832;28;20199;-75
2021/10/29 02:40:41;;;;;;;18.73;12.55;;;8.10;99.90;;;;;;5054541;28;20266;-74
2021/10/29 02:43:08;;;;;;;20.35;12.27;;;8.10;99.90;;;;;;5054356;28;20772;-75
2021/10/29 02:45:35;;;;;;;17.15;11.50;;;8.20;99.90;;;;;;5053813;28;20241;-75
2021/10/29 02:48:04;;;;;;;20.10;12.23;;;8.20;99.90;;;;;;5054526;28;20199;-75
2021/10/29 02:50:31;;;;;;;19.35;11.73;;;8.20;99.90;;;;;;5054488;28;20323;-74
2021/10/29 02:52:58;;;;;;;15.80;10.65;;;8.30;99.90;;;;;;5054371;28;20206;-74
2021/10/29 02:55:25;;;;;;;17.70;11.43;;;8.30;99.90;;;;;;5054670;28;20737;-75
2021/10/29 02:57:52;;;;;;;19.15;11.60;;;8.40;99.90;;;;;;5054386;28;20297;-74
2021/10/29 03:00:19;;;;;;;17.95;11.15;;;8.20;99.90;;;;;;5053959;28;20231;-74
2021/10/29 03:02:46;;;;;;;22.08;12.73;;;7.80;99.90;;;;;;5054088;28;20567;-74
2021/10/29 03:05:17;;;;;;;17.67;11.05;;;7.60;99.90;;;;;;5054274;28;20539;-74
2021/10/29 03:07:44;;;;;;;18.23;11.80;;;7.70;99.90;;;;;;5054065;28;20208;-75
2021/10/29 03:10:13;;;;;;;18.65;10.80;;;7.80;99.90;;;;;;5054078;28;20233;-75
2021/10/29 03:12:40;;;;;;;22.33;11.95;;;7.60;99.90;;;;;;5053730;28;20212;-75
2021/10/29 03:15:09;;;;;;;27.02;12.32;;;7.50;99.90;;;;;;5053691;28;20310;-74
2021/10/29 03:17:35;;;;;;;19.48;12.27;;;7.40;99.90;;;;;;5054031;28;20551;-75
2021/10/29 03:20:03;;;;;;;18.42;11.60;;;7.30;99.90;;;;;;5053931;28;20207;-74
2021/10/29 03:22:32;;;;;;;23.60;12.25;;;7.20;99.90;;;;;;5053848;28;20204;-75
2021/10/29 03:24:59;;;;;;;20.05;13.40;;;7.30;99.90;;;;;;5053708;28;20231;-75
2021/10/29 03:27:25;;;;;;;20.23;11.98;;;7.30;99.90;;;;;;5053881;28;20294;-75
2021/10/29 03:29:52;;;;;;;23.27;11.27;;;7.20;99.90;;;;;;5053636;28;20207;-75
2021/10/29 03:32:21;;;;;;;21.05;11.95;;;7.20;99.90;;;;;;5053478;28;20773;-74
2021/10/29 03:34:48;;;;;;;21.88;13.23;;;7.30;99.90;;;;;;5053807;28;20202;-75
2021/10/29 03:37:25;;;;;;;15.88;10.50;;;7.40;99.90;;;;;;5053748;28;20199;-75
2021/10/29 03:39:58;;;;;;;19.52;11.85;;;7.30;99.90;;;;;;5053641;28;20206;-75
2021/10/29 03:42:29;;;;;;;19.30;11.68;;;7.20;99.90;;;;;;5053315;28;20661;-74
2021/10/29 03:45:00;;;;;;;19.85;11.63;;;7.10;99.90;;;;;;5053647;28;20281;-74
2021/10/29 03:47:29;;;;;;;18.40;11.70;;;7.00;99.90;;;;;;5053669;28;20296;-74
2021/10/29 03:50:11;;;;;;;16.83;10.45;;;7.10;99.90;;;;;;5053495;28;20203;-75
2021/10/29 03:52:48;;;;;;;22.35;12.50;;;7.20;99.90;;;;;;5053462;28;20595;-74
2021/10/29 03:55:16;;;;;;;27.17;12.35;;;7.30;99.90;;;;;;5053390;28;20557;-74
2021/10/29 03:57:43;;;;;;;23.75;12.57;;;7.30;99.90;;;;;;5053473;28;20210;-74
2021/10/29 04:00:11;;;;;;;18.90;11.35;;;7.30;99.90;;;;;;5053064;28;20665;-74
2021/10/29 04:02:37;;;;;;;20.20;10.88;;;7.10;99.90;;;;;;5053045;28;20207;-74
2021/10/29 04:05:05;;;;;;;24.60;12.18;;;6.90;99.90;;;;;;5053290;28;20314;-74
2021/10/29 04:07:32;;;;;;;16.65;11.35;;;6.70;99.90;;;;;;5053433;28;20203;-74
2021/10/29 04:09:59;;;;;;;23.83;12.32;;;6.60;99.90;;;;;;5053129;28;20737;-74
2021/10/29 04:12:27;;;;;;;21.25;12.15;;;6.50;99.90;;;;;;5053245;28;20203;-74
2021/10/29 04:14:56;;;;;;;18.77;11.80;;;6.50;99.90;;;;;;5053272;28;20199;-74
2021/10/29 04:17:23;;;;;;;21.17;12.35;;;6.50;99.90;;;;;;5053240;28;20200;-74
2021/10/29 04:19:50;;;;;;;18.70;11.63;;;6.60;99.90;;;;;;5053335;28;20203;-74
2021/10/29 04:22:16;;;;;;;20.23;10.48;;;6.50;99.90;;;;;;5053057;28;20310;-74
2021/10/29 04:24:43;;;;;;;17.65;11.23;;;6.50;99.90;;;;;;5053198;28;20581;-74
2021/10/29 04:27:19;;;;;;;21.48;11.98;;;6.40;99.90;;;;;;5053282;28;20203;-74
2021/10/29 04:29:48;;;;;;;20.88;12.25;;;6.60;99.90;;;;;;5053174;28;20682;-74
2021/10/29 04:32:15;;;;;;;21.08;10.95;;;6.70;99.90;;;;;;5052788;28;20314;-74
2021/10/29 04:34:42;;;;;;;22.65;12.52;;;6.70;99.90;;;;;;5053186;28;20213;-74
2021/10/29 04:37:09;;;;;;;22.15;11.38;;;6.80;99.90;;;;;;5053169;28;20298;-74
2021/10/29 04:39:37;;;;;;;20.42;11.13;;;6.90;99.90;;;;;;5053042;28;20666;-74
2021/10/29 04:42:05;;;;;;;19.50;12.68;;;6.90;99.90;;;;;;5052949;28;20231;-74
2021/10/29 04:44:32;;;;;;;20.63;11.43;;;6.70;99.90;;;;;;5052920;28;20231;-74
2021/10/29 04:47:00;;;;;;;18.55;12.15;;;6.70;99.90;;;;;;5053097;28;20290;-75
2021/10/29 04:49:27;;;;;;;18.20;11.55;;;6.50;99.90;;;;;;5053052;28;20551;-74
2021/10/29 04:51:54;;;;;;;18.77;10.73;;;6.40;99.90;;;;;;5052556;28;20230;-74
2021/10/29 04:54:21;;;;;;;16.92;10.68;;;6.20;99.90;;;;;;5052818;28;20202;-74
2021/10/29 04:56:49;;;;;;;18.05;11.45;;;6.10;99.90;;;;;;5053000;28;20290;-74
2021/10/29 04:59:17;;;;;;;20.08;12.10;;;6.00;99.90;;;;;;5052879;28;20735;-74
2021/10/29 05:01:46;;;;;;;19.65;11.65;;;5.90;99.90;;;;;;5052709;28;20223;-74
2021/10/29 05:04:14;;;;;;;20.98;10.90;;;5.90;99.90;;;;;;5052525;28;20230;-74
2021/10/29 05:06:41;;;;;;;18.63;10.98;;;5.90;99.90;;;;;;5052898;28;20298;-74
2021/10/29 05:09:08;;;;;;;19.30;11.82;;;6.10;99.90;;;;;;5055789;28;20203;-74
2021/10/29 05:11:35;;;;;;;16.25;10.45;;;6.30;99.90;;;;;;5056138;28;20230;-74
2021/10/29 05:14:02;;;;;;;18.02;10.60;;;6.30;99.90;;;;;;5056441;28;20635;-74
2021/10/29 05:16:29;;;;;;;23.00;11.88;;;6.50;99.90;;;;;;5056383;28;20210;-74
2021/10/29 05:18:56;;;;;;;17.77;11.43;;;6.50;99.90;;;;;;5056179;28;20795;-74
2021/10/29 05:21:24;;;;;;;18.90;11.15;;;6.50;99.90;;;;;;5055847;28;20704;-74
2021/10/29 05:23:51;;;;;;;21.55;10.85;;;6.40;99.90;;;;;;5056164;28;20229;-74
2021/10/29 05:26:18;;;;;;;19.42;10.23;;;6.30;99.90;;;;;;5056163;28;20294;-74
2021/10/29 05:28:46;;;;;;;21.15;12.52;;;6.50;99.90;;;;;;5055899;28;20235;-74
2021/10/29 05:31:13;;;;;;;17.05;11.13;;;6.50;99.90;;;;;;5055925;28;20266;-74
2021/10/29 05:33:39;;;;;;;15.25;10.80;;;6.30;99.90;;;;;;5055921;28;20196;-74
2021/10/29 05:36:07;;;;;;;16.85;11.55;;;6.20;99.90;;;;;;5056013;28;20294;-74
2021/10/29 05:38:35;;;;;;;22.77;12.25;;;6.10;99.90;;;;;;5055895;28;20673;-74
2021/10/29 05:41:02;;;;;;;19.42;10.45;;;5.90;99.90;;;;;;5055528;28;20235;-74
2021/10/29 05:43:29;;;;;;;21.38;11.23;;;5.80;99.90;;;;;;5055811;28;20294;-74
2021/10/29 05:45:56;;;;;;;21.80;11.57;;;5.80;99.90;;;;;;5055689;28;20210;-74
2021/10/29 05:48:22;;;;;;;19.85;11.45;;;5.60;99.90;;;;;;5055778;28;20205;-74
2021/10/29 05:50:50;;;;;;;18.45;11.35;;;5.70;99.90;;;;;;5055665;28;20257;-74
2021/10/29 05:53:34;;;;;;;20.13;11.65;;;5.70;99.90;;;;;;5055520;28;20243;-74
2021/10/29 05:56:04;;;;;;;20.40;11.05;;;5.90;99.90;;;;;;5055702;28;20211;-74
2021/10/29 05:58:32;;;;;;;16.88;11.55;;;6.00;99.90;;;;;;5055634;28;20211;-74
2021/10/29 06:00:59;;;;;;;21.30;11.23;;;6.10;99.90;;;;;;5055223;28;20235;-74
2021/10/29 06:03:26;;;;;;;15.60;10.23;;;6.10;99.90;;;;;;5055428;28;20243;-74
2021/10/29 06:05:53;;;;;;;16.98;11.48;;;6.20;99.90;;;;;;5055425;28;20207;-74
2021/10/29 06:08:20;;;;;;;17.70;11.25;;;6.30;99.90;;;;;;5055185;28;20746;-74
2021/10/29 06:10:47;;;;;;;17.23;10.55;;;6.20;99.90;;;;;;5055206;28;20314;-74
2021/10/29 06:13:15;;;;;;;18.75;11.35;;;6.30;99.90;;;;;;5055174;28;20296;-74
2021/10/29 06:15:44;;;;;;;16.25;10.43;;;6.30;99.90;;;;;;5055269;28;20235;-74
2021/10/29 06:18:11;;;;;;;17.77;10.75;;;6.20;99.90;;;;;;5055240;28;20203;-74
2021/10/29 06:20:39;;;;;;;19.10;10.63;;;6.10;99.90;;;;;;5055093;28;20223;-74
2021/10/29 06:23:07;;;;;;;16.65;10.55;;;6.10;99.90;;;;;;5055015;28;20285;-74
2021/10/29 06:25:41;;;;;;;15.82;10.48;;;6.10;99.90;;;;;;5054997;28;20317;-74
2021/10/29 06:28:16;;;;;;;15.43;9.60;;;6.10;99.90;;;;;;5055124;28;20713;-74
2021/10/29 06:30:47;;;;;;;14.38;10.40;;;6.10;99.90;;;;;;5054851;28;20234;-74
2021/10/29 06:33:16;;;;;;;18.00;10.93;;;6.10;99.90;;;;;;5054854;28;20214;-74
2021/10/29 06:35:43;;;;;;;19.33;11.05;;;6.20;99.90;;;;;;5054941;28;20348;-74
2021/10/29 06:38:11;;;;;;;18.85;11.15;;;6.30;99.90;;;;;;5054667;28;20210;-74
2021/10/29 06:40:39;;;;;;;14.35;10.40;;;6.40;99.90;;;;;;5054734;28;20220;-74
2021/10/29 06:43:11;;;;;;;18.65;10.30;;;6.60;99.90;;;;;;5054530;28;20658;-74
2021/10/29 06:46:01;;;;;;;16.20;9.68;;;6.60;99.90;;;;;;5054643;28;20215;-74
2021/10/29 06:48:34;;;;;;;15.57;10.15;;;6.70;99.90;;;;;;5054562;28;20209;-74
2021/10/29 06:59:29;;;;;;;14.50;10.43;;;6.90;99.90;;;;;;5054415;28;20202;-75
2021/10/29 07:02:02;;;;;;;13.13;10.60;;;6.80;99.90;;;;;;5054057;28;20223;-74
2021/10/29 07:40:09;;;;;;;17.73;11.73;;;7.70;99.90;;;;;;5053785;28;20206;-74
2021/10/29 07:42:41;;;;;;;21.75;11.20;;;7.70;99.90;;;;;;5053657;28;20199;-74
2021/10/29 07:45:09;;;;;;;16.17;11.77;;;7.60;99.90;;;;;;5053662;28;20227;-74
2021/10/29 07:47:36;;;;;;;18.25;11.43;;;7.60;99.90;;;;;;5053660;28;20287;-74
2021/10/29 07:50:04;;;;;;;18.73;12.18;;;7.60;99.90;;;;;;5053458;28;20214;-74
2021/10/29 07:52:32;;;;;;;19.60;13.10;;;7.70;99.90;;;;;;5053452;28;20565;-74
2021/10/29 07:54:59;;;;;;;16.85;11.80;;;7.80;99.90;;;;;;5053581;28;20196;-74
2021/10/29 07:57:26;;;;;;;15.90;11.38;;;7.90;99.90;;;;;;5053585;28;20568;-74
2021/10/29 07:59:53;;;;;;;16.58;11.98;;;8.20;99.90;;;;;;5053320;28;20614;-74
2021/10/29 08:02:20;;;;;;;19.73;12.15;;;8.30;99.90;;;;;;5053203;28;20717;-74
2021/10/29 08:04:48;;;;;;;16.98;11.38;;;8.40;99.90;;;;;;5053384;28;20233;-74
2021/10/29 08:07:15;;;;;;;15.95;10.88;;;8.50;99.90;;;;;;5053225;28;20295;-74
2021/10/29 08:09:44;;;;;;;17.02;9.73;;;8.60;99.90;;;;;;5053260;28;20216;-74
2021/10/29 08:12:12;;;;;;;17.52;10.95;;;8.50;99.90;;;;;;5053225;28;20273;-74
2021/10/29 08:14:39;;;;;;;13.77;9.75;;;8.60;99.90;;;;;;5053447;28;20209;-74
2021/10/29 08:17:06;;;;;;;16.02;10.63;;;8.60;99.90;;;;;;5053282;28;20203;-74
2021/10/29 08:19:33;;;;;;;14.50;10.25;;;8.90;99.90;;;;;;5053346;28;20209;-74
2021/10/29 08:22:01;;;;;;;15.30;10.38;;;8.90;99.90;;;;;;5052889;28;20224;-74
2021/10/29 08:24:28;;;;;;;15.68;11.13;;;9.00;99.90;;;;;;5053242;28;20304;-74
2021/10/29 08:26:57;;;;;;;19.40;12.77;;;9.20;99.90;;;;;;5053289;28;20210;-74
2021/10/29 08:29:24;;;;;;;19.55;10.82;;;9.10;99.90;;;;;;5053237;28;20289;-74
2021/10/29 08:31:52;;;;;;;17.08;11.73;;;9.20;99.90;;;;;;5052893;28;20310;-74
2021/10/29 08:34:20;;;;;;;16.20;9.90;;;9.20;99.90;;;;;;5053264;28;20199;-75
2021/10/29 08:36:47;;;;;;;13.90;10.68;;;9.40;99.90;;;;;;5053647;28;20230;-74
2021/10/29 08:39:14;;;;;;;15.30;10.55;;;9.50;99.90;;;;;;5053035;28;20534;-74
2021/10/29 08:41:43;;;;;;;16.90;10.73;;;9.40;99.90;;;;;;5052849;28;20250;-74
2021/10/29 08:44:13;;;;;;;16.20;11.32;;;9.50;99.90;;;;;;5056092;28;20239;-74
2021/10/29 08:46:40;;;;;;;15.18;11.00;;;9.50;99.90;;;;;;5057007;28;20208;-74
2021/10/29 08:49:09;;;;;;;15.80;11.02;;;9.70;99.90;;;;;;5056970;28;20208;-74
2021/10/29 08:51:37;;;;;;;16.42;11.40;;;9.70;99.90;;;;;;5056434;28;20702;-74
2021/10/29 08:54:05;;;;;;;16.50;10.70;;;9.70;99.90;;;;;;5056571;28;20211;-74
2021/10/29 08:56:32;;;;;;;15.45;10.95;;;9.70;99.90;;;;;;5056754;28;20207;-74
2021/10/29 08:59:09;;;;;;;15.63;11.32;;;9.90;99.90;;;;;;5056720;28;20207;-74
2021/10/29 09:01:57;;;;;;;18.98;11.50;;;10.10;99.90;;;;;;5056206;28;20235;-74
2021/10/29 09:04:40;;;;;;;13.00;9.70;;;10.20;99.90;;;;;;5056600;28;20208;-75
2021/10/29 09:07:20;;;;;;;15.95;11.10;;;10.00;99.90;;;;;;5056574;28;20199;-75
2021/10/29 09:32:19;;;;;;;18.38;11.48;;;9.80;99.90;;;;;;5055732;28;20222;-75
2021/10/29 09:35:04;;;;;;;22.15;13.35;;;9.90;99.90;;;;;;5055868;28;20206;-75
2021/10/29 09:37:37;;;;;;;14.70;10.18;;;10.00;99.90;;;;;;5056088;28;20204;-75
2021/10/29 09:40:10;;;;;;;18.73;12.77;;;10.00;99.90;;;;;;5055923;28;20257;-75
2021/10/29 09:42:39;;;;;;;17.02;11.35;;;10.30;99.90;;;;;;5055775;28;20192;-75
2021/10/29 09:45:15;;;;;;;17.83;12.27;;;10.50;99.90;;;;;;5055790;28;20269;-75
2021/10/29 09:47:46;;;;;;;19.95;12.45;;;10.70;99.90;;;;;;5055666;28;20210;-75
2021/10/29 09:50:24;;;;;;;18.52;13.15;;;10.70;99.90;;;;;;5055775;28;20578;-75
2021/10/29 09:53:04;;;;;;;17.00;11.98;;;10.60;99.90;;;;;;5055642;28;20210;-75
2021/10/29 09:55:59;;;;;;;15.80;12.45;;;10.60;99.90;;;;;;5055602;28;20195;-75
2021/10/29 09:58:26;;;;;;;22.10;13.65;;;10.60;99.90;;;;;;5055506;28;20199;-74
2021/10/29 10:00:54;;;;;;;19.65;12.90;;;10.70;99.90;;;;;;5055272;28;20231;-74
2021/10/29 10:03:22;;;;;;;19.45;13.82;;;10.80;99.90;;;;;;5055300;28;20680;-75
2021/10/29 10:05:53;;;;;;;19.52;13.13;;;10.90;99.90;;;;;;5055458;28;20337;-75
2021/10/29 10:08:22;;;;;;;17.13;13.07;;;11.00;99.90;;;;;;5055323;28;20676;-75
2021/10/29 10:10:51;;;;;;;19.98;12.63;;;11.20;99.90;;;;;;5055372;28;20234;-75
2021/10/29 10:13:19;;;;;;;18.33;12.00;;;11.30;99.90;;;;;;5055234;28;20211;-75
2021/10/29 10:15:50;;;;;;;16.13;12.27;;;11.40;99.90;;;;;;5055211;28;20206;-75
2021/10/29 10:18:18;;;;;;;17.98;11.82;;;11.50;99.90;;;;;;5055038;28;20203;-75
2021/10/29 10:20:45;;;;;;;17.05;12.38;;;11.50;99.90;;;;;;5055004;28;20230;-75
2021/10/29 10:23:18;;;;;;;18.52;12.65;;;11.50;99.90;;;;;;5054966;28;20230;-75
2021/10/29 10:26:04;;;;;;;18.75;12.10;;;11.40;99.90;;;;;;5054879;28;20223;-75
2021/10/29 10:40:29;;;;;;;14.50;12.02;;;11.70;99.90;;;;;;5054934;28;20229;-75
2021/10/29 10:43:19;;;;;;;16.58;11.20;;;11.70;99.90;;;;;;5054674;28;20191;-75
2021/10/29 10:45:53;;;;;;;15.85;11.18;;;11.50;99.90;;;;;;5054686;28;20227;-75
2021/10/29 10:48:24;;;;;;;16.42;12.15;;;11.50;99.90;;;;;;5054696;28;20551;-75
2021/10/29 10:50:54;;;;;;;17.50;11.45;;;11.60;99.90;;;;;;5054415;28;20262;-75
2021/10/29 10:53:30;;;;;;;16.30;12.23;;;11.50;99.90;;;;;;5054082;28;20227;-75
2021/10/29 10:56:10;;;;;;;18.25;12.75;;;11.60;99.90;;;;;;5054351;28;20203;-75
2021/10/29 10:58:50;;;;;;;17.58;12.30;;;11.80;99.90;;;;;;5054360;28;20230;-75
2021/10/29 11:01:37;;;;;;;15.02;11.25;;;11.90;99.90;;;;;;5054097;28;20321;-75
2021/10/29 11:07:17;;;;;;;16.33;11.57;;;12.20;99.90;;;;;;5040576;28;20227;-74
2021/10/29 11:13:09;;;;;;;14.05;10.77;;;12.30;99.90;;;;;;5038241;28;20192;-74
2021/10/29 11:15:37;;;;;;;15.63;11.35;;;12.40;99.90;;;;;;5054176;28;20199;-74
2021/10/29 11:18:26;;;;;;;16.83;12.27;;;12.60;99.90;;;;;;5054042;28;20203;-74
2021/10/29 11:20:54;;;;;;;15.30;10.85;;;12.80;99.90;;;;;;5054027;28;20228;-74
2021/10/29 11:23:23;;;;;;;16.83;11.85;;;12.90;99.90;;;;;;5053872;28;20209;-74
2021/10/29 11:26:00;;;;;;;17.30;12.60;;;12.90;99.90;;;;;;5053958;28;20223;-74
2021/10/29 11:28:33;;;;;;;16.98;11.57;;;13.00;99.90;;;;;;5053788;28;20203;-74
2021/10/29 11:31:01;;;;;;;17.48;11.98;;;13.10;99.90;;;;;;5053570;28;20230;-74
2021/10/29 11:33:30;;;;;;;16.85;11.93;;;13.20;99.90;;;;;;5053882;28;20294;-74
2021/10/29 11:36:01;;;;;;;18.30;11.18;;;13.20;99.90;;;;;;5053853;28;20195;-74
2021/10/29 11:38:29;;;;;;;18.70;12.57;;;13.20;99.90;;;;;;5053710;28;20720;-74
2021/10/29 11:40:57;;;;;;;13.55;10.00;;;13.20;99.90;;;;;;5053693;28;20277;-74
2021/10/29 11:43:26;;;;;;;17.10;11.50;;;13.30;99.90;;;;;;5053184;28;20247;-74
2021/10/29 11:45:55;;;;;;;16.55;11.77;;;13.40;99.90;;;;;;5053613;28;20231;-74
2021/10/29 11:48:23;;;;;;;15.38;11.50;;;13.50;99.90;;;;;;5053650;28;20613;-74
2021/10/29 11:51:08;;;;;;;16.60;12.60;;;13.70;99.90;;;;;;5053482;28;20224;-74
2021/10/29 11:53:43;;;;;;;15.13;10.73;;;13.90;99.90;;;;;;5053644;28;20208;-74
2021/10/29 11:56:23;;;;;;;17.33;11.40;;;14.30;99.90;;;;;;5053552;28;20617;-74
2021/10/29 11:59:03;;;;;;;13.70;10.82;;;14.70;99.90;;;;;;5053601;28;20290;-74
2021/10/29 12:01:35;;;;;;;14.20;10.93;;;14.90;99.90;;;;;;5052992;28;20237;-74
2021/10/29 12:09:32;;;;;;;13.40;11.07;;;15.10;99.90;;;;;;5053529;28;20200;-74
2021/10/29 12:12:02;;;;;;;14.90;10.60;;;15.20;99.90;;;;;;5053205;28;20230;-74
2021/10/29 12:14:31;;;;;;;11.07;9.50;;;15.10;99.90;;;;;;5053266;28;20241;-74
2021/10/29 12:17:10;;;;;;;11.55;9.30;;;15.10;99.90;;;;;;5054381;28;20210;-74
2021/10/29 12:19:39;;;;;;;14.85;9.48;;;15.20;99.90;;;;;;5057355;28;20665;-75
2021/10/29 12:25:09;;;;;;;14.93;10.05;;;15.50;99.90;;;;;;4995997;28;20198;-74
2021/10/29 12:27:39;;;;;;;11.63;8.93;;;16.10;99.90;;;;;;5045232;28;20684;-74
2021/10/29 12:30:26;;;;;;;11.52;9.10;;;16.50;99.90;;;;;;5057223;28;20290;-74
2021/10/29 12:53:02;;;;;;;11.07;8.68;;;16.00;99.90;;;;;;5023380;28;20289;-74
2021/10/29 13:03:47;;;;;;;8.80;5.70;;;15.70;99.90;;;;;;5056761;28;20208;-75
2021/10/29 13:06:17;;;;;;;12.40;6.97;;;15.70;99.90;;;;;;5056530;28;20313;-74
2021/10/29 13:08:49;;;;;;;8.35;6.78;;;15.70;99.90;;;;;;5056491;28;20264;-74
2021/10/29 13:11:16;;;;;;;10.13;7.07;;;15.80;99.90;;;;;;5056087;28;20708;-74
2021/10/29 13:13:46;;;;;;;6.97;6.15;;;15.80;99.90;;;;;;5056493;28;20215;-75
2021/10/29 13:16:13;;;;;;;9.00;6.95;;;15.80;99.90;;;;;;5056351;28;20215;-75
2021/10/29 13:35:24;;;;;;;9.50;6.63;;;15.70;99.90;;;;;;5055993;28;20251;-74
2021/10/29 13:38:04;;;;;;;10.00;6.45;;;15.70;99.90;;;;;;5056078;28;20215;-75
2021/10/29 13:51:51;;;;;;;8.48;6.35;;;15.70;99.90;;;;;;5036335;28;20260;-74
2021/10/29 13:54:26;;;;;;;8.50;6.00;;;15.70;99.90;;;;;;5055753;28;20238;-74
2021/10/29 13:57:13;;;;;;;8.75;6.57;;;15.70;99.90;;;;;;5055720;28;20198;-74
2021/10/29 13:59:56;;;;;;;7.97;6.78;;;15.70;99.90;;;;;;5055526;28;20218;-74
2021/10/29 14:02:41;;;;;;;7.93;6.32;;;15.60;99.90;;;;;;5055402;28;20230;-74
2021/10/29 14:16:55;;;;;;;10.02;6.28;;;15.50;99.90;;;;;;4993894;28;20661;-74
2021/10/29 14:30:24;;;;;;;8.30;6.25;;;15.40;99.90;;;;;;5054964;28;20236;-74
2021/10/29 14:32:54;;;;;;;8.35;5.63;;;15.40;99.90;;;;;;5054863;28;20228;-74
2021/10/29 14:35:23;;;;;;;7.70;6.05;;;15.40;99.90;;;;;;5054969;28;20314;-75
2021/10/29 14:38:05;;;;;;;7.72;5.68;;;15.40;99.90;;;;;;5054802;28;20202;-74
2021/10/29 14:40:36;;;;;;;6.55;5.15;;;15.50;99.90;;;;;;5053699;28;20226;-74
2021/10/29 14:43:07;;;;;;;7.20;6.10;;;15.40;99.90;;;;;;5054702;28;20217;-74
2021/10/29 14:45:37;;;;;;;5.93;5.25;;;15.30;99.90;;;;;;5054610;28;20210;-75
2021/10/29 14:48:22;;;;;;;6.65;5.95;;;15.30;99.90;;;;;;5054753;28;20253;-75
2021/10/29 15:02:12;;;;;;;7.00;5.80;;;15.00;99.90;;;;;;5054035;28;20641;-74
2021/10/29 15:14:42;;;;;;;6.82;5.10;;;15.00;99.90;;;;;;5036094;28;20694;-74
2021/10/29 15:16:03;;;;;;;9.10;5.65;;;14.80;99.90;;;;;;5054120;28;20251;-74
2021/10/29 15:29:52;;;;;;;5.60;4.72;;;14.90;99.90;;;;;;5027908;28;20198;-75
2021/10/29 15:43:33;;;;;;;8.13;6.10;;;14.80;99.90;;;;;;5053489;28;20236;-74
2021/10/29 15:46:07;;;;;;;7.32;5.80;;;14.60;99.90;;;;;;5053704;28;20242;-75
2021/10/29 15:48:44;;;;;;;7.68;6.20;;;14.50;99.90;;;;;;5053719;28;20211;-74
2021/10/29 15:51:11;;;;;;;9.43;5.20;;;14.40;99.90;;;;;;5052908;28;20236;-74
2021/10/29 15:53:38;;;;;;;8.57;6.50;;;14.30;99.90;;;;;;5053320;28;20210;-74
2021/10/29 15:56:12;;;;;;;8.35;6.88;;;14.10;99.90;;;;;;5053597;28;20195;-74
2021/10/29 15:58:43;;;;;;;7.43;6.25;;;14.00;99.90;;;;;;5053459;28;20203;-75
2021/10/29 16:01:15;;;;;;;6.78;5.32;;;13.90;99.90;;;;;;5052935;28;20613;-74
2021/10/29 16:17:25;;;;;;;13.82;9.40;;;13.50;99.90;;;;;;5053571;28;20203;-74
2021/10/29 16:19:54;;;;;;;12.70;8.15;;;13.40;99.90;;;;;;5053368;28;20397;-74
2021/10/29 16:22:23;;;;;;;9.50;6.47;;;13.30;99.90;;;;;;5052789;28;20310;-74
2021/10/29 16:24:58;;;;;;;11.07;7.57;;;13.20;99.90;;;;;;5053276;28;20568;-74
2021/10/29 16:27:33;;;;;;;8.90;6.10;;;13.20;99.90;;;;;;5053160;28;20570;-74
2021/10/29 16:30:00;;;;;;;7.82;5.85;;;13.00;99.90;;;;;;5053254;28;20302;-74
2021/10/29 16:32:39;;;;;;;7.45;6.03;;;12.80;99.90;;;;;;5053144;28;20203;-74
2021/10/29 16:35:08;;;;;;;7.85;5.70;;;12.80;99.90;;;;;;5053106;28;20199;-74
2021/10/29 16:37:35;;;;;;;7.90;6.45;;;12.80;99.90;;;;;;5053221;28;20203;-74